Time;durP1;ratioP1;P1;durP2;ratioP2;P2;SDS_P1;SDS_P2;PMS_P1;PMS_P2;Temp;Humidity;BMP_temperature;BMP_pressure;BME280_temperature;BME280_humidity;BME280_pressure;Samples;Min_cycle;Max_cycle;Signal;HPM_P1;HPM_P2
2021/04/05 04:43:02;;;;;;;21.55;12.78;;;;;;;3.06;85.70;99727.95;1712010;81;21693;-39
2021/04/05 04:45:31;;;;;;;21.00;13.40;;;;;;;3.08;85.85;99717.24;1670372;85;21220;-46
2021/04/05 04:47:59;;;;;;;29.57;18.20;;;;;;;3.14;86.05;99719.53;1708784;82;21182;-46
2021/04/05 04:50:27;;;;;;;36.63;22.02;;;;;;;3.26;86.08;99720.20;1699696;82;21260;-47
2021/04/05 04:52:55;;;;;;;44.40;21.52;;;;;;;3.38;85.78;99714.40;1700665;83;21196;-38
2021/04/05 04:55:26;;;;;;;24.95;15.43;;;;;;;3.49;85.38;99714.61;1711640;82;21669;-46
2021/04/05 04:58:01;;;;;;;25.70;16.55;;;;;;;3.61;85.07;99715.71;1702181;81;21643;-38
2021/04/05 05:00:30;;;;;;;25.08;14.18;;;;;;;3.74;84.41;99711.20;1711571;82;21543;-46
2021/04/05 05:02:58;;;;;;;28.95;13.88;;;;;;;3.86;83.94;99711.84;1707170;82;21255;-46
2021/04/05 05:05:30;;;;;;;28.32;15.70;;;;;;;4.02;83.89;99714.70;1703741;82;21167;-39
2021/04/05 05:07:58;;;;;;;30.00;15.45;;;;;;;4.19;83.17;99710.25;1684259;82;22171;-39
2021/04/05 05:10:26;;;;;;;28.75;15.53;;;;;;;4.33;82.82;99710.89;1708915;82;21240;-38
2021/04/05 05:12:54;;;;;;;31.68;15.43;;;;;;;4.46;82.30;99712.81;1709858;82;21584;-39
2021/04/05 05:15:23;;;;;;;35.80;18.30;;;;;;;4.61;81.99;99705.71;1703370;82;22363;-39
2021/04/05 05:17:50;;;;;;;32.45;16.62;;;;;;;4.77;81.38;99704.66;1712531;82;21166;-39
2021/04/05 05:20:19;;;;;;;32.08;18.35;;;;;;;4.91;80.84;99694.47;1687701;82;21179;-39
2021/04/05 05:22:57;;;;;;;32.55;17.27;;;;;;;5.09;80.17;99700.31;1705477;82;21380;-39
2021/04/05 05:25:25;;;;;;;27.10;16.05;;;;;;;5.23;79.76;99700.07;1707063;81;21565;-39
2021/04/05 05:28:05;;;;;;;34.38;18.98;;;;;;;5.37;79.44;99691.57;1684659;82;21191;-39
2021/04/05 05:30:33;;;;;;;38.45;16.93;;;;;;;5.49;79.22;99693.00;1707046;81;21563;-39
2021/04/05 05:33:07;;;;;;;34.23;18.77;;;;;;;5.65;79.03;99697.50;1705613;81;21172;-38
2021/04/05 05:35:36;;;;;;;35.15;17.80;;;;;;;5.81;78.65;99690.31;1705555;82;21759;-38
2021/04/05 05:38:20;;;;;;;40.12;20.72;;;;;;;5.96;78.21;99688.30;1705688;82;21561;-48
2021/04/05 05:41:00;;;;;;;32.03;18.37;;;;;;;6.07;77.68;99687.97;1706954;82;21153;-41
2021/04/05 05:43:58;;;;;;;40.43;18.52;;;;;;;6.16;76.89;99687.20;1703764;82;21324;-47
2021/04/05 05:46:49;;;;;;;39.13;20.25;;;;;;;6.17;76.42;99686.33;1678373;83;22077;-41
2021/04/05 05:49:28;;;;;;;34.08;16.70;;;;;;;6.19;76.43;99678.55;1699705;82;21187;-41
2021/04/05 05:52:27;;;;;;;36.85;17.27;;;;;;;6.25;76.14;99682.05;1712145;82;21533;-40
2021/04/05 05:55:13;;;;;;;28.60;15.20;;;;;;;6.32;75.99;99680.36;1663085;84;21235;-38
2021/04/05 05:58:14;;;;;;;39.65;18.27;;;;;;;6.34;75.04;99678.23;1675698;84;21392;-48
2021/04/05 06:00:50;;;;;;;32.80;16.25;;;;;;;6.30;75.05;99679.50;1675458;84;21723;-46
2021/04/05 06:03:33;;;;;;;31.77;16.65;;;;;;;6.25;75.10;99676.86;1674423;84;21803;-46
2021/04/05 06:06:36;;;;;;;38.67;18.07;;;;;;;6.24;74.65;99673.83;1634453;86;21237;-39
2021/04/05 06:09:32;;;;;;;28.65;15.38;;;;;;;6.27;74.69;99668.67;1627788;86;21191;-46
2021/04/05 06:12:26;;;;;;;28.20;16.25;;;;;;;6.32;74.92;99677.38;1651800;84;21357;-38
2021/04/05 06:15:15;;;;;;;31.27;15.72;;;;;;;6.39;75.08;99676.98;1647773;84;21255;-47
2021/04/05 06:18:05;;;;;;;28.85;14.80;;;;;;;6.56;75.03;99677.96;1672292;84;21313;-46
2021/04/05 06:21:41;;;;;;;28.07;16.02;;;;;;;6.77;74.16;99675.03;1652731;84;21216;-47
2021/04/05 06:29:42;;;;;;;26.07;14.50;;;;;;;7.05;72.64;99672.14;1662224;84;20467;-40
2021/04/05 06:33:16;;;;;;;21.20;13.05;;;;;;;7.15;71.94;99670.89;1662218;84;22153;-39
2021/04/05 06:36:22;;;;;;;21.90;13.78;;;;;;;7.18;71.59;99663.08;1700187;82;21162;-39
2021/04/05 06:38:57;;;;;;;26.00;12.75;;;;;;;7.18;71.88;99665.69;1662496;84;21234;-39
2021/04/05 06:41:39;;;;;;;25.90;13.93;;;;;;;7.27;72.27;99664.00;1628920;86;22114;-39
2021/04/05 06:44:30;;;;;;;20.05;12.07;;;;;;;7.42;72.50;99669.23;1702796;82;21191;-40
2021/04/05 06:47:24;;;;;;;18.07;11.38;;;;;;;7.55;71.62;99668.85;1702240;82;21223;-47
2021/04/05 06:50:19;;;;;;;18.00;11.93;;;;;;;7.61;71.09;99669.73;1707356;82;21223;-47
2021/04/05 06:53:20;;;;;;;18.92;11.00;;;;;;;7.62;70.37;99667.99;1706002;82;21153;-47
2021/04/05 06:55:56;;;;;;;16.48;10.72;;;;;;;7.63;70.92;99668.42;1708324;82;21174;-47
2021/04/05 06:58:58;;;;;;;18.95;11.38;;;;;;;7.68;70.49;99659.75;1709811;82;21239;-46
2021/04/05 07:01:40;;;;;;;18.10;11.35;;;;;;;7.78;70.80;99658.05;1710410;82;21155;-46
2021/04/05 07:04:46;;;;;;;15.03;10.23;;;;;;;7.97;69.96;99653.27;1698183;82;21192;-47
2021/04/05 07:07:37;;;;;;;14.65;10.00;;;;;;;8.06;68.64;99651.12;1715016;81;21134;-46
2021/04/05 07:10:13;;;;;;;14.03;10.70;;;;;;;8.06;68.27;99648.52;1703527;81;21738;-46
2021/04/05 07:12:53;;;;;;;15.20;10.25;;;;;;;8.08;68.92;99652.41;1702979;82;21143;-47
2021/04/05 07:15:44;;;;;;;16.75;11.75;;;;;;;8.07;68.52;99654.16;1706720;83;21211;-40
2021/04/05 07:18:37;;;;;;;20.85;12.68;;;;;;;8.10;68.70;99652.83;1660671;84;21199;-41
2021/04/05 07:21:19;;;;;;;14.75;10.15;;;;;;;8.18;67.71;99650.25;1645016;85;21249;-39
2021/04/05 07:24:16;;;;;;;16.97;9.50;;;;;;;8.26;67.48;99653.27;1707757;82;21431;-46
2021/04/05 07:26:51;;;;;;;11.90;9.20;;;;;;;8.27;66.54;99645.00;1692938;83;21155;-47
2021/04/05 07:29:29;;;;;;;14.68;9.30;;;;;;;8.32;66.44;99646.31;1796032;78;22798;-45
2021/04/05 07:32:19;;;;;;;16.45;8.35;;;;;;;8.22;66.65;99650.22;1765536;80;21583;-46
2021/04/05 07:35:01;;;;;;;11.25;8.48;;;;;;;8.20;66.91;99642.84;1726190;82;22130;-46
2021/04/05 07:38:20;;;;;;;13.75;8.88;;;;;;;8.38;66.97;99640.69;1795089;78;23010;-47
2021/04/05 07:41:05;;;;;;;16.07;9.23;;;;;;;8.45;65.43;99638.48;1740345;81;21191;-46
2021/04/05 07:44:12;;;;;;;13.90;9.25;;;;;;;8.55;64.55;99629.36;1741484;81;21174;-46
2021/04/05 07:46:53;;;;;;;13.25;8.70;;;;;;;8.58;64.40;99623.72;1742080;81;21689;-47
2021/04/05 07:49:35;;;;;;;11.63;8.23;;;;;;;8.59;63.92;99621.97;1735744;81;21655;-47
2021/04/05 07:52:07;;;;;;;12.95;8.60;;;;;;;8.58;63.62;99621.11;1742479;81;21139;-47
2021/04/05 07:54:35;;;;;;;12.70;9.17;;;;;;;8.62;61.91;99617.59;1720832;81;21151;-46
2021/04/05 07:57:42;;;;;;;13.45;9.05;;;;;;;8.68;62.95;99612.36;1743454;81;21167;-47
2021/04/05 08:00:28;;;;;;;12.10;9.15;;;;;;;8.72;62.37;99615.84;1744302;81;21190;-47
2021/04/05 08:03:36;;;;;;;14.07;9.70;;;;;;;8.68;62.20;99615.41;1741149;81;21191;-40
2021/04/05 08:06:06;;;;;;;14.33;8.70;;;;;;;8.70;61.68;99603.25;1742208;81;21167;-47
2021/04/05 08:08:55;;;;;;;12.20;8.13;;;;;;;8.81;60.58;99601.44;1741233;81;21654;-46
2021/04/05 08:11:59;;;;;;;12.13;8.85;;;;;;;8.98;59.83;99596.16;1732524;81;21155;-39
2021/04/05 08:15:03;;;;;;;13.15;8.58;;;;;;;9.12;59.11;99597.41;1685890;83;21510;-40
2021/04/05 08:18:20;;;;;;;;;;;;;;;9.26;60.49;99589.05;1689762;83;21261;-40
2021/04/05 08:21:57;;;;;;;10.85;8.23;;;;;;;9.38;59.75;99585.50;1685835;83;20218;-46
2021/04/05 08:25:11;;;;;;;12.93;7.50;;;;;;;9.33;59.05;99582.91;1690865;83;21917;-46
2021/04/05 08:28:07;;;;;;;15.68;8.28;;;;;;;9.20;59.86;99585.18;1687330;83;21698;-46
2021/04/05 08:31:14;;;;;;;11.93;8.15;;;;;;;9.16;60.47;99578.23;1798209;78;23552;-45
2021/04/05 08:34:34;;;;;;;9.58;7.10;;;;;;;9.06;60.34;99577.00;1707382;82;21665;-46
2021/04/05 08:37:46;;;;;;;10.78;7.25;;;;;;;9.04;58.40;99568.32;1796147;78;22284;-46
2021/04/05 08:40:43;;;;;;;10.98;7.37;;;;;;;8.97;56.69;99570.50;1739060;81;21180;-39
2021/04/05 08:43:44;;;;;;;11.35;7.67;;;;;;;9.05;56.63;99560.05;1796561;78;23555;-40
2021/04/05 08:46:15;;;;;;;22.42;13.10;;;;;;;9.09;56.61;99565.66;1746020;81;21193;-46
2021/04/05 08:48:45;;;;;;;27.82;14.90;;;;;;;9.08;60.37;99566.98;1736731;81;21159;-46
2021/04/05 08:51:36;;;;;;;22.98;14.90;;;;;;;8.92;61.84;99572.27;1742718;81;21146;-45
2021/04/05 08:54:06;;;;;;;23.70;14.50;;;;;;;8.69;60.79;99564.98;1734997;81;21212;-45
2021/04/05 08:56:44;;;;;;;21.20;12.35;;;;;;;8.45;61.95;99570.71;1737321;81;21178;-46
2021/04/05 08:59:20;;;;;;;16.35;12.45;;;;;;;8.30;61.76;99573.34;1728201;81;21204;-47
2021/04/05 09:01:51;;;;;;;15.43;11.68;;;;;;;8.19;62.38;99572.50;1737697;81;21639;-46
2021/04/05 09:04:23;;;;;;;16.37;11.00;;;;;;;8.15;62.29;99566.84;1739450;81;21196;-47
2021/04/05 09:07:11;;;;;;;11.75;9.95;;;;;;;8.15;60.79;99561.64;1738242;81;21613;-46
2021/04/05 09:09:39;;;;;;;13.83;10.43;;;;;;;8.17;60.43;99560.75;1736916;81;21323;-46
2021/04/05 09:12:08;;;;;;;18.60;10.78;;;;;;;8.21;59.90;99561.63;1736709;81;21162;-47
2021/04/05 09:14:56;;;;;;;11.60;9.43;;;;;;;8.31;58.75;99555.53;1715639;81;21650;-47
2021/04/05 09:18:02;;;;;;;11.90;9.30;;;;;;;8.40;58.89;99548.13;1734145;81;21492;-47
2021/04/05 09:29:08;;;;;;;8.93;7.72;;;;;;;8.14;56.43;99535.16;1736207;81;21199;-40
2021/04/05 09:33:15;;;;;;;9.35;7.17;;;;;;;7.89;55.35;99530.00;1739426;81;21170;-39
2021/04/05 09:37:06;;;;;;;10.35;8.08;;;;;;;7.77;57.98;99531.72;1738449;81;21107;-39
2021/04/05 09:40:23;;;;;;;9.30;7.40;;;;;;;7.73;56.30;99527.83;1737396;81;21621;-40
2021/04/05 09:43:17;;;;;;;7.03;6.28;;;;;;;7.71;57.91;99520.47;1730245;81;21635;-41
2021/04/05 09:46:37;;;;;;;8.58;7.62;;;;;;;7.74;57.76;99515.23;1722884;81;21340;-45
2021/04/05 09:49:30;;;;;;;10.78;9.18;;;;;;;7.79;56.54;99513.94;1724382;81;21616;-48
2021/04/05 09:52:42;;;;;;;9.35;7.50;;;;;;;7.84;55.92;99513.50;1725615;80;21157;-47
2021/04/05 09:55:14;;;;;;;9.00;7.05;;;;;;;7.87;54.94;99513.92;1727121;81;21224;-46
2021/04/05 09:57:57;;;;;;;7.80;6.62;;;;;;;7.90;55.53;99507.42;1725176;82;21166;-47
2021/04/05 10:00:26;;;;;;;9.30;6.80;;;;;;;7.94;55.51;99502.61;1723643;81;21139;-47
2021/04/05 10:02:59;;;;;;;7.67;5.83;;;;;;;7.97;54.35;99503.92;1728340;82;21603;-48
2021/04/05 10:05:27;;;;;;;6.12;5.30;;;;;;;7.98;54.67;99504.35;1722700;81;21151;-47
2021/04/05 10:07:56;;;;;;;7.45;5.58;;;;;;;8.07;55.97;99499.58;1723556;81;21514;-48
2021/04/05 10:10:25;;;;;;;7.05;5.83;;;;;;;8.24;56.26;99496.48;1687921;83;21722;-49
2021/04/05 10:12:54;;;;;;;6.92;5.28;;;;;;;8.44;55.82;99488.61;1725561;80;21198;-47
2021/04/05 10:15:24;;;;;;;5.85;5.25;;;;;;;8.56;55.83;99489.86;1726515;81;21189;-48
2021/04/05 10:17:56;;;;;;;8.10;5.50;;;;;;;8.65;53.48;99484.61;1718576;81;21164;-48
2021/04/05 10:20:36;;;;;;;6.53;5.65;;;;;;;8.67;52.87;99488.51;1717810;81;21328;-47
2021/04/05 10:23:24;;;;;;;9.28;6.78;;;;;;;8.68;53.46;99488.49;1724471;81;21166;-47
2021/04/05 10:26:01;;;;;;;6.25;4.92;;;;;;;8.80;53.55;99483.20;1724375;81;21616;-48
2021/04/05 10:28:32;;;;;;;5.92;5.10;;;;;;;8.99;53.58;99485.28;1722178;81;21187;-38
2021/04/05 10:31:15;;;;;;;7.37;4.83;;;;;;;9.22;53.87;99478.61;1723423;81;21154;-39
2021/04/05 10:33:47;;;;;;;7.30;5.00;;;;;;;9.48;50.56;99477.08;1723286;81;21123;-39
2021/04/05 10:36:23;;;;;;;6.65;5.03;;;;;;;9.58;50.91;99470.04;1726102;81;22006;-39
2021/04/05 10:38:53;;;;;;;6.33;4.67;;;;;;;9.65;50.29;99468.23;1723538;81;21235;-39
2021/04/05 10:41:21;;;;;;;5.90;4.30;;;;;;;9.84;50.36;99469.77;1724811;81;21678;-39
2021/04/05 10:43:57;;;;;;;5.72;4.50;;;;;;;10.04;49.32;99466.53;1718336;81;21198;-47
2021/04/05 10:46:34;;;;;;;4.80;4.03;;;;;;;10.17;49.83;99452.01;1719491;82;22175;-47
2021/04/05 10:49:09;;;;;;;5.15;3.87;;;;;;;10.32;49.06;99457.06;1656249;85;21681;-48
2021/04/05 10:51:44;;;;;;;4.50;3.98;;;;;;;10.42;48.46;99446.92;1722777;81;21615;-47
2021/04/05 10:54:28;;;;;;;4.50;3.55;;;;;;;10.48;46.42;99450.77;1720359;81;21171;-47
2021/04/05 10:57:20;;;;;;;4.50;3.98;;;;;;;10.35;47.00;99444.83;1674343;83;21381;-46
2021/04/05 11:00:02;;;;;;;5.25;3.85;;;;;;;10.28;47.70;99448.86;1719716;81;21169;-46
2021/04/05 11:02:44;;;;;;;5.40;3.87;;;;;;;10.29;47.44;99442.74;1717745;81;21168;-46
2021/04/05 11:05:15;;;;;;;4.97;4.03;;;;;;;10.31;47.83;99440.52;1718715;81;21486;-46
2021/04/05 11:07:48;;;;;;;5.62;4.50;;;;;;;10.31;47.47;99437.04;1678661;81;21522;-41
2021/04/05 11:10:20;;;;;;;5.28;3.85;;;;;;;10.27;47.26;99437.54;1716815;81;21224;-39
2021/04/05 11:12:57;;;;;;;7.30;5.12;;;;;;;10.23;47.39;99440.17;1677606;83;21769;-40
2021/04/05 11:15:27;;;;;;;8.50;6.78;;;;;;;10.11;49.19;99434.20;1717914;81;21589;-41
2021/04/05 11:17:56;;;;;;;8.98;5.72;;;;;;;9.94;52.33;99430.91;1720127;81;21203;-41
2021/04/05 11:20:30;;;;;;;7.15;5.60;;;;;;;9.79;53.38;99430.63;1718738;81;21485;-41
2021/04/05 11:23:09;;;;;;;7.45;5.75;;;;;;;9.71;54.13;99436.38;1718110;81;21570;-39
2021/04/05 11:25:42;;;;;;;9.48;7.33;;;;;;;9.62;53.98;99435.60;1670956;83;21167;-46
2021/04/05 11:28:31;;;;;;;10.38;5.95;;;;;;;9.57;54.57;99431.75;1674406;83;21136;-54
2021/04/05 11:31:05;;;;;;;6.80;5.90;;;;;;;9.51;56.08;99431.38;1674833;83;21498;-48
2021/04/05 11:33:35;;;;;;;7.83;6.37;;;;;;;9.46;56.68;99427.94;1667281;84;21538;-48
2021/04/05 11:36:04;;;;;;;7.87;6.62;;;;;;;9.44;56.74;99427.06;1720406;81;21612;-49
2021/04/05 11:38:40;;;;;;;8.65;6.75;;;;;;;9.44;56.99;99429.67;1718322;81;21561;-48
2021/04/05 11:41:10;;;;;;;7.78;6.75;;;;;;;9.40;57.37;99425.82;1720248;82;22089;-48
2021/04/05 11:43:42;;;;;;;11.68;6.70;;;;;;;9.40;58.34;99412.77;1719248;81;21176;-48
2021/04/05 11:46:12;;;;;;;9.28;7.45;;;;;;;9.37;58.69;99414.09;1721530;81;21181;-49
2021/04/05 11:48:42;;;;;;;10.58;7.17;;;;;;;9.35;59.03;99404.97;1689146;83;21194;-45
2021/04/05 11:51:19;;;;;;;9.78;6.97;;;;;;;9.46;58.65;99410.09;1692080;83;21647;-47
